Time;durP1;ratioP1;P1;durP2;ratioP2;P2;SDS_P1;SDS_P2;PMS_P1;PMS_P2;Temp;Humidity;BMP_temperature;BMP_pressure;BME280_temperature;BME280_humidity;BME280_pressure;Samples;Min_cycle;Max_cycle;Signal;HPM_P1;HPM_P2
2022/03/09 00:00:15;;;;;;;14.93;7.68;;;1.30;45.80;;;;;;5094035;28;20024;-73
2022/03/09 00:02:41;;;;;;;14.85;9.23;;;1.30;45.80;;;;;;5093219;28;20028;-73
2022/03/09 00:05:07;;;;;;;17.10;9.00;;;1.20;46.10;;;;;;5093799;28;20145;-73
2022/03/09 00:07:33;;;;;;;14.50;8.90;;;1.20;46.30;;;;;;5093906;28;20318;-74
2022/03/09 00:09:59;;;;;;;15.43;8.18;;;1.20;46.40;;;;;;5093855;28;20102;-73
2022/03/09 00:12:24;;;;;;;14.68;8.05;;;1.10;46.40;;;;;;5093857;28;20102;-74
2022/03/09 00:14:50;;;;;;;17.13;8.35;;;1.20;46.40;;;;;;5093120;28;20421;-73
2022/03/09 00:17:15;;;;;;;15.07;9.05;;;1.10;46.40;;;;;;5093559;28;20032;-73
2022/03/09 00:19:41;;;;;;;19.95;8.70;;;1.10;46.30;;;;;;5093477;28;20064;-73
2022/03/09 00:22:07;;;;;;;16.15;9.18;;;1.00;46.20;;;;;;5093703;28;20024;-73
2022/03/09 00:24:33;;;;;;;20.67;9.23;;;0.90;46.50;;;;;;5092152;28;20078;-73
2022/03/09 00:27:00;;;;;;;15.85;8.57;;;0.90;46.70;;;;;;5093473;28;20025;-74
2022/03/09 00:29:26;;;;;;;15.75;8.55;;;0.90;46.80;;;;;;5093120;28;20036;-73
2022/03/09 00:31:52;;;;;;;18.33;7.93;;;0.80;46.80;;;;;;5093254;28;20028;-73
2022/03/09 00:34:17;;;;;;;15.48;8.95;;;0.90;46.90;;;;;;5093138;28;20036;-74
2022/03/09 00:36:43;;;;;;;16.88;8.73;;;0.80;46.90;;;;;;5091970;28;20058;-74
2022/03/09 00:39:09;;;;;;;15.07;8.05;;;0.80;46.90;;;;;;5093285;28;20027;-72
2022/03/09 00:41:35;;;;;;;17.38;9.00;;;0.70;47.10;;;;;;5093705;28;20352;-73
2022/03/09 00:44:01;;;;;;;17.55;8.52;;;0.70;47.40;;;;;;5093402;28;20516;-73
2022/03/09 00:46:27;;;;;;;14.93;7.88;;;0.60;47.40;;;;;;5099088;28;20042;-74
2022/03/09 00:48:53;;;;;;;14.63;7.85;;;0.60;47.60;;;;;;5093558;28;20020;-73
2022/03/09 00:51:18;;;;;;;18.45;8.52;;;0.60;47.70;;;;;;5093273;28;20059;-73
2022/03/09 00:53:44;;;;;;;16.08;8.27;;;0.60;47.80;;;;;;5091948;28;20414;-73
2022/03/09 00:56:09;;;;;;;16.40;8.23;;;0.60;47.80;;;;;;5092760;28;20056;-73
2022/03/09 00:58:35;;;;;;;13.13;7.13;;;0.60;47.80;;;;;;5093075;28;20024;-74
2022/03/09 01:01:00;;;;;;;13.88;8.30;;;0.60;47.90;;;;;;5092940;28;20380;-73
2022/03/09 01:03:26;;;;;;;15.55;8.38;;;0.60;48.10;;;;;;5093027;28;20023;-73
2022/03/09 01:05:51;;;;;;;15.88;8.52;;;0.50;48.20;;;;;;5093002;28;20069;-73
2022/03/09 01:08:17;;;;;;;16.20;7.82;;;0.50;48.40;;;;;;5091581;28;20435;-73
2022/03/09 01:10:43;;;;;;;15.45;8.52;;;0.50;48.40;;;;;;5092975;28;20024;-73
2022/03/09 01:13:08;;;;;;;16.00;8.07;;;0.40;48.40;;;;;;5092928;28;20020;-73
2022/03/09 01:15:34;;;;;;;15.63;8.13;;;0.40;48.60;;;;;;5092529;28;20052;-73
2022/03/09 01:17:59;;;;;;;13.88;7.40;;;0.30;48.80;;;;;;5092950;28;20023;-73
2022/03/09 01:20:25;;;;;;;13.65;8.00;;;0.30;49.00;;;;;;5092572;28;20016;-73
2022/03/09 01:22:52;;;;;;;14.30;7.65;;;0.30;48.90;;;;;;5092819;28;20043;-72
2022/03/09 01:25:18;;;;;;;14.52;8.15;;;0.30;48.70;;;;;;5092666;28;20076;-74
2022/03/09 01:27:44;;;;;;;16.58;8.73;;;0.30;48.80;;;;;;5092719;28;20472;-73
2022/03/09 01:30:10;;;;;;;19.20;8.95;;;0.30;49.00;;;;;;5092487;28;20100;-74
2022/03/09 01:32:36;;;;;;;14.23;8.23;;;0.30;49.10;;;;;;5092606;28;20387;-73
2022/03/09 01:35:02;;;;;;;17.30;8.43;;;0.20;49.20;;;;;;5092527;28;20028;-73
2022/03/09 01:37:28;;;;;;;16.38;8.48;;;0.20;49.20;;;;;;5092708;28;20024;-73
2022/03/09 01:39:54;;;;;;;12.55;7.75;;;0.10;49.50;;;;;;5092633;28;20035;-73
2022/03/09 01:42:19;;;;;;;18.30;9.52;;;0.00;49.90;;;;;;5092256;28;20160;-72
2022/03/09 01:44:45;;;;;;;15.07;7.20;;;0.00;50.20;;;;;;5092218;28;20090;-72
2022/03/09 01:47:11;;;;;;;16.70;8.55;;;0.00;50.10;;;;;;5092317;28;20146;-72
2022/03/09 01:49:36;;;;;;;14.18;8.40;;;0.00;50.30;;;;;;5092395;28;20078;-72
2022/03/09 01:52:02;;;;;;;20.92;8.73;;;0.00;50.10;;;;;;5092509;28;20028;-73
2022/03/09 01:54:29;;;;;;;16.55;8.48;;;0.00;50.30;;;;;;5092443;28;20116;-72
2022/03/09 01:56:55;;;;;;;17.33;8.73;;;0.00;50.40;;;;;;5092493;28;20075;-72
2022/03/09 01:59:21;;;;;;;17.60;9.07;;;-0.10;50.30;;;;;;5110097;28;20105;-72
2022/03/09 02:01:46;;;;;;;15.70;9.10;;;-0.10;50.40;;;;;;5102482;28;20064;-73
2022/03/09 02:04:12;;;;;;;14.23;8.40;;;-0.20;50.50;;;;;;5096241;28;20027;-72
2022/03/09 02:06:39;;;;;;;18.15;9.18;;;-0.30;50.70;;;;;;5096187;28;20456;-72
2022/03/09 02:11:51;;;;;;;15.52;8.68;;;-0.20;50.90;;;;;;5096375;28;20038;-72
2022/03/09 02:14:31;;;;;;;18.25;8.88;;;-0.20;50.70;;;;;;5095959;28;20107;-73
2022/03/09 02:16:59;;;;;;;17.48;9.02;;;-0.20;51.00;;;;;;5095813;28;20060;-73
2022/03/09 02:19:25;;;;;;;17.77;9.20;;;-0.20;51.30;;;;;;5094579;28;20564;-72
2022/03/09 02:21:58;;;;;;;16.05;8.75;;;-0.10;51.40;;;;;;5095948;28;20081;-73
2022/03/09 02:24:25;;;;;;;12.40;8.45;;;-0.10;51.40;;;;;;5096015;28;20016;-73
2022/03/09 02:26:50;;;;;;;17.63;9.55;;;-0.10;51.30;;;;;;5095940;28;20069;-73
2022/03/09 02:29:16;;;;;;;15.77;8.45;;;0.00;51.30;;;;;;5095694;28;20024;-73
2022/03/09 02:31:48;;;;;;;15.90;9.20;;;0.10;51.10;;;;;;5096076;28;20024;-73
2022/03/09 02:34:14;;;;;;;17.48;8.68;;;0.10;51.00;;;;;;5094158;28;20020;-72
2022/03/09 02:36:39;;;;;;;12.63;7.57;;;0.10;51.00;;;;;;5096237;28;20097;-73
2022/03/09 02:39:05;;;;;;;14.00;8.32;;;0.00;51.00;;;;;;5095661;28;20032;-72
2022/03/09 02:41:33;;;;;;;18.23;9.57;;;0.00;51.10;;;;;;5095460;28;20032;-73
2022/03/09 02:44:00;;;;;;;18.90;9.25;;;0.00;50.80;;;;;;5094083;28;20032;-72
2022/03/09 02:46:26;;;;;;;17.40;8.85;;;0.00;50.80;;;;;;5095275;28;20024;-73
2022/03/09 02:48:53;;;;;;;16.23;8.68;;;-0.10;51.00;;;;;;5094070;28;20028;-73
2022/03/09 02:51:18;;;;;;;22.42;9.25;;;-0.20;51.20;;;;;;5095127;28;20035;-73
2022/03/09 02:53:44;;;;;;;16.98;9.27;;;-0.30;51.50;;;;;;5095219;28;20075;-74
2022/03/09 02:56:09;;;;;;;16.25;8.60;;;-0.30;51.70;;;;;;5094954;28;20032;-73
2022/03/09 02:58:35;;;;;;;19.25;8.90;;;-0.30;51.70;;;;;;5095107;28;20030;-73
2022/03/09 03:01:00;;;;;;;18.42;9.68;;;-0.30;51.80;;;;;;5095101;28;20095;-73
2022/03/09 03:03:26;;;;;;;18.45;8.60;;;-0.40;51.80;;;;;;5095045;28;20016;-73
2022/03/09 03:05:51;;;;;;;21.02;9.15;;;-0.40;51.90;;;;;;5094981;28;20024;-73
2022/03/09 03:08:17;;;;;;;15.95;9.18;;;-0.40;52.20;;;;;;5094760;28;20387;-73
2022/03/09 03:10:42;;;;;;;17.50;9.15;;;-0.50;52.30;;;;;;5094926;28;20028;-73
2022/03/09 03:13:08;;;;;;;19.13;9.27;;;-0.50;52.70;;;;;;5094993;28;20048;-73
2022/03/09 03:15:33;;;;;;;18.52;8.95;;;-0.50;52.80;;;;;;5094701;28;20098;-73
2022/03/09 03:18:01;;;;;;;19.13;9.63;;;-0.50;52.70;;;;;;5094880;28;20101;-73
2022/03/09 03:20:26;;;;;;;17.23;9.10;;;-0.50;52.70;;;;;;5094568;28;20016;-73
2022/03/09 03:22:52;;;;;;;16.77;9.23;;;-0.70;52.80;;;;;;5094723;28;20058;-73
2022/03/09 03:25:18;;;;;;;17.00;9.82;;;-0.70;53.70;;;;;;5094360;28;20028;-72
2022/03/09 03:27:43;;;;;;;15.13;7.85;;;-0.70;53.00;;;;;;5094590;28;20024;-73
2022/03/09 03:30:09;;;;;;;16.20;9.00;;;-0.60;53.90;;;;;;5094518;28;20460;-72
2022/03/09 03:32:35;;;;;;;14.30;8.20;;;-0.60;52.90;;;;;;5094568;28;20034;-72
2022/03/09 03:35:00;;;;;;;15.88;9.48;;;-0.60;52.80;;;;;;5094431;28;20095;-72
2022/03/09 03:37:26;;;;;;;16.50;9.00;;;-0.50;53.30;;;;;;5094443;28;20447;-72
2022/03/09 03:39:51;;;;;;;15.57;9.55;;;-0.60;52.40;;;;;;5094416;28;20021;-73
2022/03/09 03:42:17;;;;;;;20.08;10.23;;;-0.50;52.40;;;;;;5094287;28;20039;-73
2022/03/09 03:44:43;;;;;;;17.77;9.35;;;-0.60;52.20;;;;;;5094280;28;20390;-73
2022/03/09 03:47:08;;;;;;;19.02;9.05;;;-0.70;52.50;;;;;;5094222;28;20021;-72
2022/03/09 03:49:34;;;;;;;18.20;9.82;;;-0.70;52.80;;;;;;5094189;28;20028;-72
2022/03/09 03:51:59;;;;;;;20.77;10.73;;;-0.90;53.30;;;;;;5093938;28;20027;-72
2022/03/09 03:54:25;;;;;;;18.77;10.35;;;-1.00;53.70;;;;;;5092846;28;20028;-72
2022/03/09 03:56:50;;;;;;;19.02;10.10;;;-1.00;54.10;;;;;;5093900;28;20047;-73
2022/03/09 03:59:16;;;;;;;19.48;10.02;;;-1.00;54.30;;;;;;5093755;28;20020;-72
2022/03/09 04:01:41;;;;;;;17.27;9.00;;;-1.00;54.50;;;;;;5091894;28;20027;-72
2022/03/09 04:04:07;;;;;;;21.35;10.02;;;-1.00;54.60;;;;;;5093944;28;20059;-72
2022/03/09 04:06:32;;;;;;;19.17;10.40;;;-1.10;54.60;;;;;;5093927;28;20046;-72
2022/03/09 04:08:58;;;;;;;16.45;9.45;;;-1.10;54.70;;;;;;5093975;28;20043;-72
2022/03/09 04:11:23;;;;;;;17.45;9.40;;;-1.10;54.90;;;;;;5093642;28;20046;-72
2022/03/09 04:13:49;;;;;;;18.90;9.48;;;-1.10;54.70;;;;;;5092347;28;20024;-72
2022/03/09 04:16:15;;;;;;;20.00;10.73;;;-1.10;54.90;;;;;;5091969;28;20052;-72
2022/03/09 04:18:40;;;;;;;22.35;10.02;;;-1.20;55.20;;;;;;5093581;28;20054;-72
2022/03/09 04:21:06;;;;;;;22.73;10.85;;;-1.30;55.80;;;;;;5092884;28;20036;-73
2022/03/09 04:23:32;;;;;;;18.85;10.10;;;-1.30;56.00;;;;;;5094672;28;20046;-72
2022/03/09 04:25:57;;;;;;;22.27;10.20;;;-1.30;55.80;;;;;;5110735;28;20028;-73
2022/03/09 04:28:23;;;;;;;21.20;9.45;;;-1.20;55.70;;;;;;5101614;28;20061;-72
2022/03/09 04:30:48;;;;;;;19.23;9.32;;;-1.30;55.60;;;;;;5092945;28;20024;-72
2022/03/09 04:33:14;;;;;;;18.20;9.88;;;-1.20;55.60;;;;;;5093625;28;20024;-72
2022/03/09 04:35:39;;;;;;;20.80;9.77;;;-1.20;55.60;;;;;;5093069;28;20032;-73
2022/03/09 04:38:05;;;;;;;20.52;10.07;;;-1.30;55.70;;;;;;5093358;28;20074;-73
2022/03/09 04:40:31;;;;;;;20.33;10.20;;;-1.30;55.80;;;;;;5093351;28;20028;-73
2022/03/09 04:42:56;;;;;;;20.95;10.57;;;-1.30;55.80;;;;;;5093176;28;20023;-73
2022/03/09 04:45:23;;;;;;;20.92;10.10;;;-1.40;56.00;;;;;;5093047;28;20028;-72
2022/03/09 04:47:48;;;;;;;19.20;10.15;;;-1.50;56.00;;;;;;5093094;28;20114;-72
2022/03/09 04:50:14;;;;;;;20.70;9.90;;;-1.40;56.30;;;;;;5094675;28;20064;-72
2022/03/09 04:52:39;;;;;;;18.27;9.65;;;-1.50;56.10;;;;;;5094443;28;20052;-73
2022/03/09 04:55:06;;;;;;;17.52;9.40;;;-1.40;55.90;;;;;;5092670;28;20103;-72
2022/03/09 04:57:31;;;;;;;18.65;8.85;;;-1.40;55.60;;;;;;5092800;28;20110;-72
2022/03/09 04:59:57;;;;;;;19.52;10.45;;;-1.40;55.60;;;;;;5092783;28;20103;-72
2022/03/09 05:02:22;;;;;;;23.25;9.85;;;-1.40;55.60;;;;;;5092813;28;20028;-72
2022/03/09 05:04:48;;;;;;;22.35;10.85;;;-1.40;55.60;;;;;;5092961;28;20103;-73
2022/03/09 05:07:13;;;;;;;17.27;10.40;;;-1.30;55.70;;;;;;5092860;28;20045;-73
2022/03/09 05:09:39;;;;;;;18.10;9.48;;;-1.30;55.40;;;;;;5092955;28;20028;-72
2022/03/09 05:12:05;;;;;;;18.77;9.63;;;-1.30;55.20;;;;;;5092689;28;20071;-73
2022/03/09 05:14:31;;;;;;;20.90;10.25;;;-1.30;55.10;;;;;;5092833;28;20023;-72
2022/03/09 05:16:57;;;;;;;19.38;9.65;;;-1.20;55.00;;;;;;5092638;28;20056;-73
2022/03/09 05:19:22;;;;;;;24.67;10.82;;;-1.20;55.00;;;;;;5092708;28;20028;-72
2022/03/09 05:21:48;;;;;;;22.70;10.32;;;-1.20;54.80;;;;;;5092769;28;20020;-72
2022/03/09 05:24:16;;;;;;;19.98;10.35;;;-1.30;54.90;;;;;;5092922;28;20443;-73
2022/03/09 05:26:43;;;;;;;19.15;9.40;;;-1.30;55.10;;;;;;5092772;28;20031;-72
2022/03/09 05:29:09;;;;;;;21.30;11.02;;;-1.30;55.20;;;;;;5092805;28;20016;-72
2022/03/09 05:31:35;;;;;;;20.48;11.45;;;-1.30;55.30;;;;;;5093663;28;20058;-72
2022/03/09 05:34:00;;;;;;;22.30;11.40;;;-1.30;55.30;;;;;;5096930;28;20031;-72
2022/03/09 05:36:26;;;;;;;23.48;11.77;;;-1.30;55.20;;;;;;5095619;28;20038;-72
2022/03/09 05:38:51;;;;;;;22.23;12.25;;;-1.30;54.90;;;;;;5096849;28;20055;-72
2022/03/09 05:41:17;;;;;;;26.15;13.77;;;-1.50;55.40;;;;;;5096812;28;20040;-74
2022/03/09 05:43:42;;;;;;;28.10;13.52;;;-1.60;55.60;;;;;;5096864;28;20020;-74
2022/03/09 05:46:11;;;;;;;25.27;13.07;;;-1.70;55.90;;;;;;5096679;28;20361;-73
2022/03/09 05:48:36;;;;;;;25.42;12.82;;;-1.60;56.10;;;;;;5096856;28;20043;-73
2022/03/09 05:51:02;;;;;;;26.75;12.57;;;-1.60;56.20;;;;;;5096364;28;20484;-73
2022/03/09 05:53:27;;;;;;;24.13;12.75;;;-1.50;56.20;;;;;;5096885;28;20141;-74
2022/03/09 05:55:53;;;;;;;26.10;13.02;;;-1.50;55.90;;;;;;5096708;28;20111;-74
2022/03/09 05:58:18;;;;;;;28.15;12.90;;;-1.50;55.60;;;;;;5096643;28;20122;-73
2022/03/09 06:00:44;;;;;;;24.65;12.65;;;-1.50;55.60;;;;;;5095388;28;20024;-73
2022/03/09 06:03:09;;;;;;;21.63;12.40;;;-1.50;55.90;;;;;;5095127;28;20085;-73
2022/03/09 06:05:35;;;;;;;23.45;12.15;;;-1.50;56.30;;;;;;5095029;28;20024;-73
2022/03/09 06:08:00;;;;;;;33.05;13.93;;;-1.50;56.90;;;;;;5095762;28;20103;-73
2022/03/09 06:10:26;;;;;;;23.95;12.52;;;-1.40;56.00;;;;;;5096395;28;20095;-73
2022/03/09 06:12:52;;;;;;;23.20;11.77;;;-1.40;55.60;;;;;;5095908;28;20392;-73
2022/03/09 06:15:18;;;;;;;27.40;12.63;;;-1.40;55.60;;;;;;5095980;28;20047;-73
2022/03/09 06:17:49;;;;;;;26.20;12.90;;;-1.40;55.70;;;;;;5096184;28;20029;-73
2022/03/09 06:20:17;;;;;;;35.13;13.93;;;-1.30;55.70;;;;;;5095986;28;20016;-73
2022/03/09 06:22:42;;;;;;;30.38;13.82;;;-1.30;55.70;;;;;;5096077;28;20020;-73
2022/03/09 06:25:08;;;;;;;25.15;12.70;;;-1.40;56.00;;;;;;5095854;28;20085;-72
2022/03/09 06:27:46;;;;;;;26.08;12.98;;;-1.30;55.80;;;;;;5094678;28;20506;-73
2022/03/09 06:30:13;;;;;;;28.77;13.82;;;-1.30;55.70;;;;;;5095259;28;20496;-72
2022/03/09 06:32:39;;;;;;;25.45;12.80;;;-1.20;55.60;;;;;;5094427;28;20376;-73
2022/03/09 06:35:06;;;;;;;24.55;12.60;;;-1.10;55.30;;;;;;5095659;28;20028;-73
2022/03/09 06:37:32;;;;;;;25.80;13.52;;;-1.10;55.10;;;;;;5095762;28;20040;-74
2022/03/09 06:39:58;;;;;;;26.88;13.25;;;-1.00;54.90;;;;;;5095522;28;20059;-74
2022/03/09 06:42:25;;;;;;;31.92;12.98;;;-0.90;54.70;;;;;;5095251;28;20028;-74
2022/03/09 06:44:51;;;;;;;24.75;12.52;;;-0.70;54.40;;;;;;5093184;28;20020;-76
2022/03/09 06:47:16;;;;;;;24.92;12.88;;;-0.50;56.80;;;;;;5095723;28;20061;-77
2022/03/09 06:49:42;;;;;;;28.15;14.00;;;-0.30;58.60;;;;;;5095446;28;20457;-82
2022/03/09 06:52:09;;;;;;;27.27;13.10;;;-0.10;55.90;;;;;;5096532;28;20035;-84
2022/03/09 06:54:35;;;;;;;27.15;13.27;;;0.90;76.80;;;;;;5096882;28;20026;-85
2022/03/09 06:57:00;;;;;;;34.88;15.77;;;1.60;65.30;;;;;;5100600;28;20032;-82
2022/03/09 06:59:26;;;;;;;34.10;16.05;;;2.30;62.90;;;;;;5116092;28;20012;-77
2022/03/09 07:01:52;;;;;;;35.10;15.88;;;2.90;57.10;;;;;;5102362;28;20089;-83
2022/03/09 07:04:17;;;;;;;37.58;18.17;;;3.10;54.00;;;;;;5098071;28;20038;-83
2022/03/09 07:06:43;;;;;;;35.00;16.98;;;3.30;49.40;;;;;;5097038;28;20476;-88
2022/03/09 07:09:08;;;;;;;33.97;16.63;;;3.40;49.20;;;;;;5096447;28;20074;-87
2022/03/09 07:11:35;;;;;;;33.17;16.55;;;3.60;49.40;;;;;;5097429;28;20107;-86
2022/03/09 07:14:01;;;;;;;29.30;16.70;;;4.00;48.60;;;;;;5096274;28;20111;-77
2022/03/09 07:16:26;;;;;;;24.05;14.98;;;4.10;45.70;;;;;;5096050;28;20181;-79
2022/03/09 07:18:52;;;;;;;34.75;16.42;;;4.10;45.30;;;;;;5095758;28;20024;-77
2022/03/09 07:21:18;;;;;;;32.10;15.32;;;3.90;43.80;;;;;;5094280;28;20487;-78
2022/03/09 07:23:44;;;;;;;28.92;16.27;;;3.80;42.60;;;;;;5094678;28;20078;-75
2022/03/09 07:26:09;;;;;;;34.15;17.25;;;3.70;43.80;;;;;;5093962;28;20488;-71
2022/03/09 07:28:35;;;;;;;27.67;15.73;;;3.60;42.50;;;;;;5095273;28;20016;-72
2022/03/09 07:31:01;;;;;;;30.23;16.13;;;3.20;42.20;;;;;;5094413;28;20051;-72
2022/03/09 07:33:26;;;;;;;38.17;17.08;;;2.90;42.80;;;;;;5095049;28;20016;-72
2022/03/09 07:35:52;;;;;;;35.13;17.80;;;2.60;44.20;;;;;;5094586;28;20400;-72
2022/03/09 07:38:18;;;;;;;31.27;16.48;;;2.30;45.60;;;;;;5094497;28;20028;-72
2022/03/09 07:40:44;;;;;;;36.20;17.13;;;1.90;46.30;;;;;;5094837;28;20027;-71
2022/03/09 07:43:10;;;;;;;32.58;17.55;;;1.70;47.10;;;;;;5094899;28;20028;-71
2022/03/09 07:45:36;;;;;;;33.40;16.95;;;1.70;47.80;;;;;;5094831;28;20078;-73
2022/03/09 07:48:02;;;;;;;35.25;17.58;;;1.80;48.00;;;;;;5094881;28;20028;-72
2022/03/09 07:50:27;;;;;;;34.97;16.30;;;1.90;47.90;;;;;;5095134;28;20032;-73
2022/03/09 07:52:53;;;;;;;35.28;17.83;;;2.00;47.50;;;;;;5094673;28;20468;-73
2022/03/09 07:55:19;;;;;;;35.22;16.85;;;2.00;47.30;;;;;;5093373;28;20021;-73
2022/03/09 07:57:44;;;;;;;32.10;16.75;;;2.10;47.10;;;;;;5094418;28;20039;-73
2022/03/09 08:00:11;;;;;;;31.23;15.68;;;2.20;47.10;;;;;;5094075;28;20095;-72
2022/03/09 08:02:36;;;;;;;32.25;16.73;;;2.30;47.50;;;;;;5094002;28;20464;-72
2022/03/09 08:05:03;;;;;;;30.70;16.15;;;2.40;46.90;;;;;;5094128;28;20031;-74
2022/03/09 08:07:30;;;;;;;29.17;16.38;;;2.60;46.30;;;;;;5093757;28;20099;-71
2022/03/09 08:09:56;;;;;;;34.10;17.58;;;2.70;45.90;;;;;;5094289;28;20027;-72
2022/03/09 08:12:22;;;;;;;34.17;16.90;;;2.90;45.80;;;;;;5094046;28;20028;-72
2022/03/09 08:14:47;;;;;;;35.15;17.05;;;2.90;45.80;;;;;;5093770;28;20039;-72
2022/03/09 08:17:13;;;;;;;32.20;16.08;;;3.00;45.20;;;;;;5093623;28;20028;-72
2022/03/09 08:19:38;;;;;;;32.40;15.52;;;3.00;45.30;;;;;;5092588;28;20024;-72
2022/03/09 08:22:04;;;;;;;35.72;18.02;;;3.20;45.10;;;;;;5093587;28;20032;-71
2022/03/09 08:24:30;;;;;;;32.13;17.55;;;3.30;46.50;;;;;;5093902;28;20371;-72
2022/03/09 08:26:55;;;;;;;35.00;17.73;;;3.40;45.80;;;;;;5093808;28;20535;-72
2022/03/09 08:29:21;;;;;;;30.90;16.98;;;3.50;46.20;;;;;;5092369;28;20021;-71
2022/03/09 08:31:47;;;;;;;30.73;16.95;;;3.60;45.90;;;;;;5093833;28;20035;-72
2022/03/09 08:34:13;;;;;;;33.40;17.02;;;3.80;44.90;;;;;;5092923;28;20067;-72
2022/03/09 08:36:38;;;;;;;33.03;16.30;;;4.00;44.20;;;;;;5093782;28;20368;-73
2022/03/09 08:39:04;;;;;;;30.00;16.48;;;4.20;43.80;;;;;;5093818;28;20016;-73
2022/03/09 08:41:30;;;;;;;31.48;17.20;;;4.30;43.30;;;;;;5093933;28;20024;-72
2022/03/09 08:43:56;;;;;;;31.48;18.20;;;4.50;44.00;;;;;;5094077;28;20102;-72
2022/03/09 08:46:22;;;;;;;29.27;15.73;;;4.80;42.50;;;;;;5093797;28;20060;-73
2022/03/09 08:48:48;;;;;;;32.50;18.30;;;5.00;41.50;;;;;;5091844;28;20035;-74
2022/03/09 08:51:13;;;;;;;29.38;16.38;;;5.30;40.80;;;;;;5092418;28;20024;-72
2022/03/09 08:53:40;;;;;;;29.00;16.90;;;5.50;40.10;;;;;;5092423;28;20491;-73
2022/03/09 08:56:07;;;;;;;25.35;15.27;;;5.60;40.10;;;;;;5093444;28;20104;-72
2022/03/09 08:58:35;;;;;;;24.83;14.35;;;5.90;39.70;;;;;;5093550;28;20047;-73
2022/03/09 09:01:00;;;;;;;28.08;17.23;;;6.10;39.30;;;;;;5093627;28;20036;-72
2022/03/09 09:03:26;;;;;;;30.88;17.02;;;6.30;37.90;;;;;;5092202;28;20024;-72
2022/03/09 09:05:52;;;;;;;28.83;16.55;;;6.50;36.70;;;;;;5093586;28;20477;-72
2022/03/09 09:08:18;;;;;;;32.63;16.50;;;6.50;35.60;;;;;;5093340;28;20055;-71
2022/03/09 09:10:44;;;;;;;26.85;14.85;;;6.60;34.90;;;;;;5093366;28;20020;-72
2022/03/09 09:13:10;;;;;;;24.80;14.60;;;6.80;34.40;;;;;;5092951;28;20031;-70
2022/03/09 09:15:38;;;;;;;26.95;15.43;;;6.80;32.70;;;;;;5092902;28;20480;-72
2022/03/09 09:18:06;;;;;;;25.65;14.13;;;7.00;32.40;;;;;;5093134;28;20069;-71
2022/03/09 09:20:32;;;;;;;26.95;15.50;;;7.20;32.20;;;;;;5093078;28;20025;-72
2022/03/09 09:22:58;;;;;;;30.58;15.18;;;7.60;32.10;;;;;;5093062;28;20119;-72
2022/03/09 09:25:25;;;;;;;34.78;16.77;;;7.90;31.90;;;;;;5092855;28;20032;-72
2022/03/09 09:27:51;;;;;;;27.92;16.73;;;8.10;31.70;;;;;;5092870;28;20206;-72
2022/03/09 09:30:17;;;;;;;25.42;15.75;;;8.20;30.80;;;;;;5093005;28;20111;-72
2022/03/09 09:32:43;;;;;;;31.63;16.90;;;8.20;29.70;;;;;;5092796;28;20120;-71
2022/03/09 09:35:10;;;;;;;27.35;14.82;;;8.30;29.90;;;;;;5092804;28;20024;-71
2022/03/09 09:37:37;;;;;;;25.27;14.05;;;8.50;29.40;;;;;;5092655;28;20042;-71
2022/03/09 09:40:04;;;;;;;26.80;14.43;;;8.70;28.50;;;;;;5092474;28;20420;-71
2022/03/09 09:42:31;;;;;;;25.52;13.77;;;8.90;26.90;;;;;;5092523;28;20028;-71
2022/03/09 09:44:58;;;;;;;22.50;13.70;;;9.00;27.60;;;;;;5092469;28;20050;-74
2022/03/09 09:47:24;;;;;;;23.02;14.13;;;9.30;27.30;;;;;;5092673;28;20392;-71
2022/03/09 09:49:52;;;;;;;22.90;14.48;;;9.70;26.40;;;;;;5092553;28;20154;-71
2022/03/09 09:52:18;;;;;;;23.85;14.68;;;9.90;25.70;;;;;;5092527;28;20074;-71
2022/03/09 09:54:44;;;;;;;34.33;14.98;;;10.10;25.90;;;;;;5092483;28;20025;-72
2022/03/09 09:57:14;;;;;;;23.38;13.60;;;10.40;26.10;;;;;;5092494;28;20042;-73
2022/03/09 09:59:39;;;;;;;29.25;14.75;;;10.60;25.40;;;;;;5092570;28;20020;-72
2022/03/09 10:02:08;;;;;;;28.77;15.38;;;10.80;25.50;;;;;;5092382;28;20028;-72
2022/03/09 10:04:33;;;;;;;30.35;15.57;;;10.90;24.70;;;;;;5092873;28;20020;-70
2022/03/09 10:06:59;;;;;;;26.63;15.18;;;11.10;24.50;;;;;;5092502;28;20415;-72
2022/03/09 10:09:37;;;;;;;30.73;16.73;;;11.40;24.00;;;;;;5092237;28;20039;-71
2022/03/09 10:12:06;;;;;;;28.42;15.43;;;11.50;24.00;;;;;;5092498;28;20081;-71
2022/03/09 10:14:42;;;;;;;30.40;16.17;;;11.70;23.70;;;;;;5092185;28;20107;-72
2022/03/09 10:17:14;;;;;;;29.77;17.33;;;11.70;24.80;;;;;;5091886;28;20123;-72
2022/03/09 10:19:42;;;;;;;27.27;16.83;;;11.70;25.20;;;;;;5095095;28;20016;-72
2022/03/09 10:22:24;;;;;;;34.45;18.77;;;12.00;25.70;;;;;;5096052;28;20032;-72
2022/03/09 10:24:51;;;;;;;31.23;18.13;;;12.20;25.60;;;;;;5095994;28;20089;-72
2022/03/09 10:27:37;;;;;;;33.47;19.05;;;12.50;25.50;;;;;;5096188;28;20024;-71
2022/03/09 10:30:10;;;;;;;37.50;19.27;;;12.80;25.40;;;;;;5096104;28;20028;-71
2022/03/09 10:32:48;;;;;;;31.38;18.40;;;12.90;25.50;;;;;;5096425;28;20426;-72
2022/03/09 10:35:17;;;;;;;32.65;19.17;;;12.70;26.70;;;;;;5095803;28;20028;-71
2022/03/09 10:37:46;;;;;;;31.77;18.38;;;12.40;27.30;;;;;;5095792;28;20032;-71
2022/03/09 10:40:15;;;;;;;31.45;17.05;;;12.00;28.10;;;;;;5095752;28;20468;-72
2022/03/09 10:42:41;;;;;;;30.23;17.85;;;12.00;28.50;;;;;;5095748;28;20032;-73
2022/03/09 10:45:08;;;;;;;35.63;19.67;;;12.20;28.90;;;;;;5095624;28;20500;-72
2022/03/09 10:47:35;;;;;;;29.20;16.55;;;12.20;28.00;;;;;;5095604;28;20020;-73
2022/03/09 10:50:08;;;;;;;31.52;17.77;;;12.00;28.60;;;;;;5095718;28;20035;-71
2022/03/09 10:52:44;;;;;;;34.45;18.67;;;12.00;28.80;;;;;;5095715;28;20027;-73
2022/03/09 10:55:21;;;;;;;31.77;16.95;;;11.90;28.30;;;;;;5095728;28;20073;-71
2022/03/09 10:57:46;;;;;;;27.90;15.95;;;12.20;28.00;;;;;;5095490;28;20035;-73
2022/03/09 11:00:12;;;;;;;28.17;15.95;;;12.50;26.90;;;;;;5095168;28;20016;-73
2022/03/09 11:02:51;;;;;;;29.30;16.20;;;12.70;26.50;;;;;;5095369;28;20077;-71
2022/03/09 11:05:22;;;;;;;29.45;16.35;;;12.40;27.00;;;;;;5093781;28;20380;-72
2022/03/09 11:07:49;;;;;;;27.25;16.83;;;12.60;27.40;;;;;;5095135;28;20028;-71
2022/03/09 11:10:15;;;;;;;31.13;15.82;;;12.40;28.20;;;;;;5093716;28;20421;-71
2022/03/09 11:12:41;;;;;;;28.20;15.88;;;12.40;27.10;;;;;;5094807;28;20020;-72
2022/03/09 11:15:08;;;;;;;28.65;14.75;;;12.70;27.20;;;;;;5095855;28;20042;-71
2022/03/09 11:17:34;;;;;;;23.90;14.32;;;12.60;25.50;;;;;;5094865;28;20020;-71
2022/03/09 11:20:00;;;;;;;25.05;15.75;;;12.80;25.40;;;;;;5094683;28;20024;-71
2022/03/09 11:22:25;;;;;;;30.48;16.23;;;13.20;25.50;;;;;;5094769;28;20107;-71
2022/03/09 11:24:54;;;;;;;26.02;14.85;;;13.70;25.30;;;;;;5094433;28;20104;-71
2022/03/09 11:27:21;;;;;;;28.80;17.10;;;13.90;25.20;;;;;;5094209;28;20028;-71
2022/03/09 11:29:46;;;;;;;30.30;15.15;;;14.10;24.70;;;;;;5092912;28;20030;-71
2022/03/09 11:32:14;;;;;;;23.85;14.70;;;14.40;24.30;;;;;;5093293;28;20028;-71
2022/03/09 11:34:45;;;;;;;25.45;14.35;;;14.50;24.20;;;;;;5092705;28;20028;-72
2022/03/09 11:37:13;;;;;;;25.95;13.98;;;14.90;24.30;;;;;;5094543;28;20058;-71
2022/03/09 11:40:00;;;;;;;25.42;14.48;;;15.30;24.00;;;;;;5094141;28;20016;-72
2022/03/09 11:42:28;;;;;;;19.65;13.07;;;15.70;23.20;;;;;;5086450;28;20065;-71
2022/03/09 11:44:55;;;;;;;23.98;13.43;;;15.80;21.50;;;;;;5094294;28;20019;-73
2022/03/09 11:47:21;;;;;;;23.33;13.90;;;15.20;21.20;;;;;;5093785;28;20025;-71
2022/03/09 11:49:49;;;;;;;22.20;13.30;;;15.30;20.70;;;;;;5094051;28;20054;-72
2022/03/09 11:52:23;;;;;;;21.10;12.60;;;15.30;20.60;;;;;;5095569;28;20461;-71
2022/03/09 11:54:55;;;;;;;22.40;11.98;;;15.60;19.90;;;;;;5104568;28;20422;-71
2022/03/09 11:57:23;;;;;;;22.15;11.88;;;15.60;19.20;;;;;;5103774;28;20099;-72
2022/03/09 12:00:14;;;;;;;20.05;12.13;;;15.80;19.10;;;;;;5105187;28;20055;-72
2022/03/09 12:02:43;;;;;;;21.23;12.65;;;16.20;18.90;;;;;;5103142;28;20017;-72
2022/03/09 12:05:31;;;;;;;20.52;12.52;;;16.30;18.70;;;;;;5094838;28;20016;-73
2022/03/09 12:08:10;;;;;;;20.17;12.48;;;16.30;18.60;;;;;;5093294;28;20035;-72
2022/03/09 12:10:52;;;;;;;21.15;12.82;;;16.50;18.60;;;;;;5094677;28;20027;-73
2022/03/09 12:13:31;;;;;;;23.48;13.70;;;16.50;18.00;;;;;;5092954;28;20031;-72
2022/03/09 12:16:26;;;;;;;21.80;13.40;;;16.30;18.00;;;;;;5093788;28;20055;-72
2022/03/09 12:19:00;;;;;;;20.50;12.32;;;16.10;17.70;;;;;;5092904;28;20472;-74
2022/03/09 12:21:26;;;;;;;22.87;13.23;;;15.90;17.80;;;;;;5093991;28;20055;-73
2022/03/09 12:24:13;;;;;;;23.83;13.15;;;15.60;18.10;;;;;;5092493;28;20259;-73
2022/03/09 12:26:50;;;;;;;24.55;13.32;;;15.80;18.70;;;;;;5093989;28;20017;-72
2022/03/09 12:29:21;;;;;;;21.10;12.93;;;16.00;18.20;;;;;;5093774;28;20070;-72
2022/03/09 12:32:07;;;;;;;19.52;12.10;;;16.40;17.90;;;;;;5093660;28;20050;-72
2022/03/09 12:34:37;;;;;;;22.30;14.10;;;17.10;17.90;;;;;;5093837;28;20039;-73
2022/03/09 12:37:05;;;;;;;21.60;13.60;;;17.70;17.50;;;;;;5093642;28;20438;-73